createdAt,value
2023-02-23T00:00:39.340Z,1006.12
2023-02-23T00:01:39.540Z,1006.10
2023-02-23T00:02:39.691Z,1006.12
2023-02-23T00:03:39.846Z,1006.11
2023-02-23T00:04:39.954Z,1006.13
2023-02-23T00:05:40.062Z,1006.13
2023-02-23T00:06:40.278Z,1006.14
2023-02-23T00:07:40.361Z,1006.14
2023-02-23T00:08:40.518Z,1006.12
2023-02-23T00:09:40.672Z,1006.14
2023-02-23T00:10:40.807Z,1006.16
2023-02-23T00:11:40.942Z,1006.15
2023-02-23T00:12:41.070Z,1006.12
2023-02-23T00:13:41.241Z,1006.07
2023-02-23T00:14:41.334Z,1006.13
2023-02-23T00:15:41.459Z,1006.10
2023-02-23T00:16:41.633Z,1006.11
2023-02-23T00:17:41.757Z,1006.13
2023-02-23T00:18:41.890Z,1006.04
2023-02-23T00:19:42.018Z,1006.11
2023-02-23T00:20:42.144Z,1006.06
2023-02-23T00:21:42.269Z,1006.03
2023-02-23T00:22:42.596Z,1006.05
2023-02-23T00:23:42.568Z,1006.03
2023-02-23T00:24:43.225Z,1006.04
2023-02-23T00:25:42.850Z,1006.02
2023-02-23T00:26:42.970Z,1006.00
2023-02-23T00:27:43.106Z,1006.03
2023-02-23T00:28:43.249Z,1005.97
2023-02-23T00:29:43.387Z,1006.00
2023-02-23T00:30:43.556Z,1006.06
2023-02-23T00:31:43.772Z,1006.03
2023-02-23T00:32:43.890Z,1006.00
2023-02-23T00:33:43.982Z,1006.02
2023-02-23T00:34:44.134Z,1005.98
2023-02-23T00:35:44.260Z,1006.02
2023-02-23T00:36:44.402Z,1006.02
2023-02-23T00:37:44.520Z,1005.96
2023-02-23T00:38:44.640Z,1006.05
2023-02-23T00:39:44.832Z,1006.00
2023-02-23T00:40:44.911Z,1006.05
2023-02-23T00:41:45.042Z,1006.00
2023-02-23T00:42:45.204Z,1006.05
2023-02-23T00:43:45.322Z,1006.01
2023-02-23T00:44:45.475Z,1006.03
2023-02-23T00:45:45.654Z,1006.07
2023-02-23T00:46:45.757Z,1006.01
2023-02-23T00:47:45.897Z,1006.01
2023-02-23T00:48:46.056Z,1005.96
2023-02-23T00:49:46.239Z,1005.95
2023-02-23T00:50:46.385Z,1006.00
2023-02-23T00:51:46.532Z,1005.99
2023-02-23T00:52:46.651Z,1005.95
2023-02-23T00:53:46.826Z,1005.98
2023-02-23T00:54:46.965Z,1006.00
2023-02-23T00:55:47.081Z,1006.00
2023-02-23T00:56:47.193Z,1005.93
2023-02-23T00:57:47.372Z,1005.97
2023-02-23T00:58:47.492Z,1005.97
2023-02-23T00:59:47.631Z,1006.02
2023-02-23T01:00:47.771Z,1006.01
2023-02-23T01:01:47.915Z,1006.04
2023-02-23T01:02:48.020Z,1006.03
2023-02-23T01:03:48.140Z,1006.04
2023-02-23T01:04:48.271Z,1006.01
2023-02-23T01:05:49.379Z,1006.01
2023-02-23T01:06:48.545Z,1006.05
2023-02-23T01:07:48.688Z,1006.07
2023-02-23T01:08:48.827Z,1006.08
2023-02-23T01:09:48.946Z,1006.09
2023-02-23T01:10:49.074Z,1006.06
2023-02-23T01:11:49.196Z,1006.07
2023-02-23T01:12:49.327Z,1006.08
2023-02-23T01:13:49.446Z,1006.12
2023-02-23T01:14:49.572Z,1006.06
2023-02-23T01:15:49.756Z,1006.05
2023-02-23T01:16:49.825Z,1006.10
2023-02-23T01:17:49.991Z,1006.13
2023-02-23T01:18:50.125Z,1006.10
2023-02-23T01:19:50.265Z,1006.10
2023-02-23T01:20:50.419Z,1006.11
2023-02-23T01:21:50.568Z,1006.11
2023-02-23T01:22:50.699Z,1006.01
2023-02-23T01:23:50.840Z,1006.01
2023-02-23T01:24:50.952Z,1006.03
2023-02-23T01:25:51.083Z,1006.05
2023-02-23T01:26:51.263Z,1006.05
2023-02-23T01:27:51.400Z,1006.02
2023-02-23T01:28:51.564Z,1006.06
2023-02-23T01:29:51.695Z,1006.08
2023-02-23T01:30:53.397Z,1006.12
2023-02-23T01:31:52.193Z,1006.07
2023-02-23T01:32:52.126Z,1006.10
2023-02-23T01:33:52.300Z,1006.05
2023-02-23T01:34:52.438Z,1006.10
2023-02-23T01:35:52.604Z,1006.11
2023-02-23T01:36:52.802Z,1006.08
2023-02-23T01:37:52.948Z,1006.07
2023-02-23T01:38:53.081Z,1006.08
2023-02-23T01:39:53.212Z,1005.99
2023-02-23T01:40:53.378Z,1006.06
2023-02-23T01:41:53.547Z,1006.03
2023-02-23T01:42:53.714Z,1006.07
2023-02-23T01:43:53.781Z,1006.03
2023-02-23T01:44:53.909Z,1006.02
2023-02-23T01:45:54.078Z,1005.99
2023-02-23T01:46:54.163Z,1006.04
2023-02-23T01:47:54.309Z,1006.06
2023-02-23T01:48:54.433Z,1006.03
2023-02-23T01:49:54.552Z,1006.01
2023-02-23T01:50:54.691Z,1006.02
2023-02-23T01:51:54.865Z,1006.05
2023-02-23T01:52:54.958Z,1005.99
2023-02-23T01:53:55.131Z,1006.04
2023-02-23T01:54:55.304Z,1006.00
2023-02-23T01:55:55.490Z,1006.04
2023-02-23T01:56:55.618Z,1006.02
2023-02-23T01:57:55.759Z,1006.03
2023-02-23T01:58:55.916Z,1006.10
2023-02-23T01:59:56.068Z,1006.08
2023-02-23T02:00:56.190Z,1006.05
2023-02-23T02:01:56.415Z,1006.07
2023-02-23T02:02:56.691Z,1006.04
2023-02-23T02:03:56.683Z,1006.06
2023-02-23T02:04:56.813Z,1006.09
2023-02-23T02:05:56.992Z,1006.08
2023-02-23T02:06:57.109Z,1006.09
2023-02-23T02:07:57.236Z,1006.12
2023-02-23T02:08:57.350Z,1006.12
2023-02-23T02:09:57.468Z,1006.09
2023-02-23T02:10:57.602Z,1006.02
2023-02-23T02:11:57.792Z,1006.05
2023-02-23T02:12:57.948Z,1006.05
2023-02-23T02:13:58.119Z,1006.02
2023-02-23T02:14:58.250Z,1006.11
2023-02-23T02:15:58.425Z,1006.06
2023-02-23T02:16:58.557Z,1006.02
2023-02-23T02:17:58.687Z,1006.01
2023-02-23T02:18:58.830Z,1006.04
2023-02-23T02:19:58.999Z,1006.02
2023-02-23T02:20:59.160Z,1006.06
2023-02-23T02:21:59.338Z,1006.02
2023-02-23T02:22:59.518Z,1005.97
2023-02-23T02:23:59.589Z,1005.97
2023-02-23T02:24:59.804Z,1005.98
2023-02-23T02:25:59.922Z,1005.96
2023-02-23T02:27:00.104Z,1005.98
2023-02-23T02:28:00.247Z,1005.99
2023-02-23T02:29:00.410Z,1005.96
2023-02-23T02:30:00.569Z,1005.95
2023-02-23T02:31:00.811Z,1005.95
2023-02-23T02:32:00.839Z,1006.01
2023-02-23T02:33:00.946Z,1005.96
2023-02-23T02:34:01.073Z,1006.03
2023-02-23T02:35:01.213Z,1005.95
2023-02-23T02:36:01.366Z,1006.01
2023-02-23T02:37:01.517Z,1005.89
2023-02-23T02:38:01.674Z,1005.98
2023-02-23T02:39:01.788Z,1005.97
2023-02-23T02:40:01.935Z,1006.01
2023-02-23T02:41:02.075Z,1005.95
2023-02-23T02:42:02.168Z,1006.02
2023-02-23T02:43:02.295Z,1005.98
2023-02-23T02:44:02.439Z,1005.98
2023-02-23T02:45:02.596Z,1005.94
2023-02-23T02:46:02.780Z,1005.91
2023-02-23T02:47:02.885Z,1005.94
2023-02-23T02:48:03.022Z,1005.99
2023-02-23T02:49:03.154Z,1005.93
2023-02-23T02:50:03.278Z,1005.95
2023-02-23T02:51:03.401Z,1005.98
2023-02-23T02:52:03.548Z,1005.92
2023-02-23T02:53:03.653Z,1005.92
2023-02-23T02:54:03.808Z,1005.96
2023-02-23T02:55:03.933Z,1005.92
2023-02-23T02:56:04.061Z,1005.90
2023-02-23T02:57:04.203Z,1005.99
2023-02-23T02:58:04.320Z,1005.87
2023-02-23T02:59:04.451Z,1005.98
2023-02-23T03:00:04.569Z,1005.94
2023-02-23T03:01:04.707Z,1005.96
2023-02-23T03:02:04.851Z,1005.95
2023-02-23T03:03:05.010Z,1005.95
2023-02-23T03:04:05.143Z,1005.94
2023-02-23T03:05:05.320Z,1005.93
2023-02-23T03:06:05.380Z,1005.91
2023-02-23T03:07:05.521Z,1005.87
2023-02-23T03:08:05.620Z,1005.98
2023-02-23T03:09:05.752Z,1005.94
2023-02-23T03:10:05.910Z,1005.93
2023-02-23T03:11:06.055Z,1005.98
2023-02-23T03:12:06.192Z,1005.96
2023-02-23T03:13:06.368Z,1005.99
2023-02-23T03:14:06.452Z,1005.95
2023-02-23T03:15:06.583Z,1006.01
2023-02-23T03:16:06.747Z,1005.98
2023-02-23T03:17:06.878Z,1005.93
2023-02-23T03:18:07.072Z,1005.99
2023-02-23T03:19:07.113Z,1005.95
2023-02-23T03:20:07.264Z,1005.93
2023-02-23T03:21:07.390Z,1006.00
2023-02-23T03:22:07.516Z,1006.03
2023-02-23T03:23:07.677Z,1006.00
2023-02-23T03:24:07.819Z,1005.98
2023-02-23T03:25:07.910Z,1006.02
2023-02-23T03:26:08.038Z,1006.00
2023-02-23T03:27:08.170Z,1006.01
2023-02-23T03:28:08.328Z,1006.02
2023-02-23T03:29:08.506Z,1005.99
2023-02-23T03:30:08.652Z,1006.01
2023-02-23T03:31:08.781Z,1006.00
2023-02-23T03:32:09.047Z,1005.99
2023-02-23T03:33:09.101Z,1005.98
2023-02-23T03:34:09.258Z,1005.96
2023-02-23T03:35:09.392Z,1005.98
2023-02-23T03:36:09.539Z,1006.02
2023-02-23T03:37:09.657Z,1005.99
2023-02-23T03:38:09.790Z,1006.07
2023-02-23T03:39:09.931Z,1006.01
2023-02-23T03:40:10.056Z,1006.05
2023-02-23T03:41:10.148Z,1006.04
2023-02-23T03:42:10.299Z,1006.07
2023-02-23T03:43:10.443Z,1006.10
2023-02-23T03:44:10.581Z,1006.04
2023-02-23T03:45:10.733Z,1006.06
2023-02-23T03:46:10.866Z,1006.01
2023-02-23T03:47:10.978Z,1006.05
2023-02-23T03:48:11.148Z,1006.05
2023-02-23T03:49:11.291Z,1006.05
2023-02-23T03:50:11.379Z,1006.03
2023-02-23T03:51:11.507Z,1006.04
2023-02-23T03:52:11.629Z,1005.98
2023-02-23T03:53:11.765Z,1006.05
2023-02-23T03:54:11.927Z,1006.05
2023-02-23T03:55:12.076Z,1006.06
2023-02-23T03:56:12.197Z,1006.06
2023-02-23T03:57:12.329Z,1006.00
2023-02-23T03:58:12.473Z,1006.08
2023-02-23T03:59:12.625Z,1006.08
2023-02-23T04:00:12.747Z,1006.05
2023-02-23T04:01:12.874Z,1006.11
2023-02-23T04:02:13.084Z,1006.06
2023-02-23T04:03:13.252Z,1006.07
2023-02-23T04:04:13.413Z,1006.05
2023-02-23T04:05:13.474Z,1006.10
2023-02-23T04:06:13.621Z,1006.08
2023-02-23T04:07:13.742Z,1006.08
2023-02-23T04:08:13.907Z,1006.13
2023-02-23T04:09:14.043Z,1006.11
2023-02-23T04:10:15.582Z,1006.11
2023-02-23T04:11:14.274Z,1006.11
2023-02-23T04:12:14.422Z,1006.19
2023-02-23T04:13:14.584Z,1006.15
2023-02-23T04:14:14.722Z,1006.21
2023-02-23T04:15:14.869Z,1006.16
2023-02-23T04:16:15.082Z,1006.13
2023-02-23T04:17:15.169Z,1006.17
2023-02-23T04:18:15.285Z,1006.17
2023-02-23T04:19:15.421Z,1006.18
2023-02-23T04:20:15.520Z,1006.17
2023-02-23T04:21:15.640Z,1006.20
2023-02-23T04:22:15.781Z,1006.20
2023-02-23T04:23:15.880Z,1006.17
2023-02-23T04:24:16.023Z,1006.19
2023-02-23T04:25:17.395Z,1006.19
2023-02-23T04:26:16.319Z,1006.20
2023-02-23T04:27:16.450Z,1006.21
2023-02-23T04:28:16.572Z,1006.18
2023-02-23T04:29:16.718Z,1006.29
2023-02-23T04:30:16.851Z,1006.19
2023-02-23T04:31:17.376Z,1006.24
2023-02-23T04:32:17.252Z,1006.24
2023-02-23T04:33:17.286Z,1006.24
2023-02-23T04:34:17.427Z,1006.23
2023-02-23T04:35:17.548Z,1006.23
2023-02-23T04:36:17.662Z,1006.28
2023-02-23T04:37:17.793Z,1006.23
2023-02-23T04:38:17.912Z,1006.28
2023-02-23T04:39:18.069Z,1006.28
2023-02-23T04:40:18.212Z,1006.29
2023-02-23T04:41:18.861Z,1006.31
2023-02-23T04:42:18.498Z,1006.30
2023-02-23T04:43:18.622Z,1006.29
2023-02-23T04:44:18.759Z,1006.33
2023-02-23T04:45:19.483Z,1006.30
2023-02-23T04:46:19.099Z,1006.28
2023-02-23T04:47:19.323Z,1006.32
2023-02-23T04:48:19.423Z,1006.33
2023-02-23T04:49:19.522Z,1006.33
2023-02-23T04:50:19.717Z,1006.29
2023-02-23T04:51:20.545Z,1006.29
2023-02-23T04:52:20.250Z,1006.27
2023-02-23T04:53:20.333Z,1006.32
2023-02-23T04:54:20.295Z,1006.28
2023-02-23T04:55:20.321Z,1006.29
2023-02-23T04:56:21.164Z,1006.33
2023-02-23T04:57:21.360Z,1006.25
2023-02-23T04:58:21.396Z,1006.26
2023-02-23T04:59:21.466Z,1006.31
2023-02-23T05:00:21.425Z,1006.24
2023-02-23T05:01:21.825Z,1006.24
2023-02-23T05:02:21.292Z,1006.30
2023-02-23T05:03:22.132Z,1006.28
2023-02-23T05:04:22.272Z,1006.30
2023-02-23T05:05:22.180Z,1006.30
2023-02-23T05:06:22.596Z,1006.31
2023-02-23T05:07:22.042Z,1006.28
2023-02-23T05:08:22.146Z,1006.29
2023-02-23T05:09:22.288Z,1006.30
2023-02-23T05:10:22.448Z,1006.26
2023-02-23T05:11:22.604Z,1006.30
2023-02-23T05:12:22.749Z,1006.32
2023-02-23T05:13:22.888Z,1006.33
2023-02-23T05:14:23.011Z,1006.26
2023-02-23T05:15:23.143Z,1006.34
2023-02-23T05:16:23.295Z,1006.37
2023-02-23T05:17:23.429Z,1006.38
2023-02-23T05:18:23.610Z,1006.37
2023-02-23T05:19:23.762Z,1006.35
2023-02-23T05:20:23.902Z,1006.35
2023-02-23T05:21:24.042Z,1006.41
2023-02-23T05:22:24.138Z,1006.37
2023-02-23T05:23:24.318Z,1006.40
2023-02-23T05:24:24.373Z,1006.37
2023-02-23T05:25:24.501Z,1006.38
2023-02-23T05:26:24.662Z,1006.40
2023-02-23T05:27:24.788Z,1006.45
2023-02-23T05:28:24.965Z,1006.41
2023-02-23T05:29:25.122Z,1006.42
2023-02-23T05:30:25.300Z,1006.43
2023-02-23T05:31:25.525Z,1006.43
2023-02-23T05:32:25.617Z,1006.40
2023-02-23T05:33:25.721Z,1006.41
2023-02-23T05:34:25.859Z,1006.43
2023-02-23T05:35:25.980Z,1006.43
2023-02-23T05:36:26.127Z,1006.43
2023-02-23T05:37:26.585Z,1006.46
2023-02-23T05:38:26.403Z,1006.49
2023-02-23T05:39:26.558Z,1006.49
2023-02-23T05:40:26.698Z,1006.48
2023-02-23T05:41:26.846Z,1006.43
2023-02-23T05:42:26.995Z,1006.45
2023-02-23T05:43:27.141Z,1006.43
2023-02-23T05:44:27.268Z,1006.43
2023-02-23T05:45:27.393Z,1006.44
2023-02-23T05:46:27.658Z,1006.44
2023-02-23T05:47:27.673Z,1006.40
2023-02-23T05:48:27.794Z,1006.38
2023-02-23T05:49:27.926Z,1006.42
2023-02-23T05:50:28.044Z,1006.43
2023-02-23T05:51:28.179Z,1006.42
2023-02-23T05:52:28.323Z,1006.44
2023-02-23T05:53:28.598Z,1006.41
2023-02-23T05:54:28.562Z,1006.45
2023-02-23T05:55:28.687Z,1006.40
2023-02-23T05:56:28.826Z,1006.47
2023-02-23T05:57:28.978Z,1006.48
2023-02-23T05:58:29.097Z,1006.47
2023-02-23T05:59:29.239Z,1006.40
2023-02-23T06:00:29.384Z,1006.46
2023-02-23T06:01:29.516Z,1006.42
2023-02-23T06:02:29.660Z,1006.45
2023-02-23T06:03:29.862Z,1006.45
2023-02-23T06:04:29.976Z,1006.42
2023-02-23T06:05:30.132Z,1006.47
2023-02-23T06:06:30.247Z,1006.49
2023-02-23T06:07:30.395Z,1006.47
2023-02-23T06:08:30.534Z,1006.48
2023-02-23T06:09:30.661Z,1006.46
2023-02-23T06:10:30.776Z,1006.50
2023-02-23T06:11:30.933Z,1006.45
2023-02-23T06:12:31.064Z,1006.44
2023-02-23T06:13:31.186Z,1006.40
2023-02-23T06:14:31.311Z,1006.46
2023-02-23T06:15:31.450Z,1006.54
2023-02-23T06:16:31.770Z,1006.45
2023-02-23T06:17:31.704Z,1006.50
2023-02-23T06:18:31.876Z,1006.49
2023-02-23T06:19:32.002Z,1006.56
2023-02-23T06:20:32.142Z,1006.59
2023-02-23T06:21:32.285Z,1006.55
2023-02-23T06:22:32.425Z,1006.58
2023-02-23T06:23:34.027Z,1006.56
2023-02-23T06:24:32.734Z,1006.61
2023-02-23T06:25:32.903Z,1006.51
2023-02-23T06:26:33.003Z,1006.62
2023-02-23T06:27:33.132Z,1006.65
2023-02-23T06:28:33.297Z,1006.71
2023-02-23T06:29:33.433Z,1006.67
2023-02-23T06:30:33.642Z,1006.69
2023-02-23T06:31:33.861Z,1006.71
2023-02-23T06:32:33.937Z,1006.76
2023-02-23T06:33:33.954Z,1006.74
2023-02-23T06:34:34.083Z,1006.73
2023-02-23T06:35:34.221Z,1006.77
2023-02-23T06:36:34.393Z,1006.78
2023-02-23T06:37:34.581Z,1006.79
2023-02-23T06:38:34.695Z,1006.85
2023-02-23T06:39:34.789Z,1006.84
2023-02-23T06:40:34.979Z,1006.82
2023-02-23T06:41:35.042Z,1006.87
2023-02-23T06:42:35.189Z,1006.85
2023-02-23T06:43:35.367Z,1006.87
2023-02-23T06:44:35.509Z,1006.89
2023-02-23T06:45:35.698Z,1006.88
2023-02-23T06:46:35.912Z,1006.87
2023-02-23T06:47:35.934Z,1006.90
2023-02-23T06:48:36.862Z,1006.89
2023-02-23T06:49:36.952Z,1006.92
2023-02-23T06:50:37.102Z,1006.90
2023-02-23T06:51:37.142Z,1006.93
2023-02-23T06:52:36.730Z,1006.96
2023-02-23T06:53:36.895Z,1006.94
2023-02-23T06:54:37.065Z,1006.95
2023-02-23T06:55:37.913Z,1006.92
2023-02-23T06:56:37.375Z,1006.99
2023-02-23T06:57:38.254Z,1007.02
2023-02-23T06:58:38.414Z,1006.97
2023-02-23T06:59:38.561Z,1007.03
2023-02-23T07:00:38.721Z,1007.00
2023-02-23T07:01:38.253Z,1006.99
2023-02-23T07:02:38.412Z,1007.03
2023-02-23T07:03:39.018Z,1006.97
2023-02-23T07:04:38.626Z,1007.01
2023-02-23T07:05:38.798Z,1007.05
2023-02-23T07:06:38.924Z,1007.03
2023-02-23T07:07:39.064Z,1007.03
2023-02-23T07:08:39.186Z,1007.02
2023-02-23T07:09:39.329Z,1007.03
2023-02-23T07:10:39.509Z,1007.04
2023-02-23T07:11:39.628Z,1007.03
2023-02-23T07:12:39.768Z,1007.07
2023-02-23T07:13:39.945Z,1007.03
2023-02-23T07:14:41.495Z,1007.05
2023-02-23T07:15:40.206Z,1007.13
2023-02-23T07:16:40.374Z,1007.06
2023-02-23T07:17:40.473Z,1007.08
2023-02-23T07:18:40.641Z,1007.10
2023-02-23T07:19:40.805Z,1007.15
2023-02-23T07:20:41.004Z,1007.11
2023-02-23T07:21:41.123Z,1007.16
2023-02-23T07:22:41.285Z,1007.15
2023-02-23T07:23:41.425Z,1007.18
2023-02-23T07:24:41.566Z,1007.13
2023-02-23T07:25:41.740Z,1007.16
2023-02-23T07:26:41.852Z,1007.13
2023-02-23T07:27:41.949Z,1007.17
2023-02-23T07:28:42.079Z,1007.18
2023-02-23T07:29:42.214Z,1007.23
2023-02-23T07:30:42.421Z,1007.22
2023-02-23T07:31:42.601Z,1007.25
2023-02-23T07:32:42.696Z,1007.24
2023-02-23T07:33:42.801Z,1007.24
2023-02-23T07:34:42.974Z,1007.28
2023-02-23T07:35:43.152Z,1007.30
2023-02-23T07:36:43.303Z,1007.26
2023-02-23T07:37:43.409Z,1007.30
2023-02-23T07:38:43.573Z,1007.33
2023-02-23T07:39:43.703Z,1007.31
2023-02-23T07:40:43.858Z,1007.30
2023-02-23T07:41:43.992Z,1007.36
2023-02-23T07:42:44.125Z,1007.37
2023-02-23T07:43:44.282Z,1007.34
2023-02-23T07:44:44.417Z,1007.29
2023-02-23T07:45:46.576Z,1007.31
2023-02-23T07:46:44.688Z,1007.35
2023-02-23T07:47:44.816Z,1007.32
2023-02-23T07:48:45.037Z,1007.34
2023-02-23T07:49:45.119Z,1007.37
2023-02-23T07:50:45.260Z,1007.36
2023-02-23T07:51:45.429Z,1007.38
2023-02-23T07:52:45.588Z,1007.38
2023-02-23T07:53:45.687Z,1007.41
2023-02-23T07:54:45.817Z,1007.34
2023-02-23T07:55:45.946Z,1007.40
2023-02-23T07:56:46.119Z,1007.43
2023-02-23T07:57:46.256Z,1007.43
2023-02-23T07:58:46.367Z,1007.47
2023-02-23T07:59:46.517Z,1007.46
2023-02-23T08:00:46.700Z,1007.49
2023-02-23T08:01:46.839Z,1007.49
2023-02-23T08:02:47.014Z,1007.47
2023-02-23T08:03:47.158Z,1007.47
2023-02-23T08:04:47.247Z,1007.47
2023-02-23T08:05:47.376Z,1007.51
2023-02-23T08:06:47.571Z,1007.50
2023-02-23T08:07:47.697Z,1007.46
2023-02-23T08:08:47.787Z,1007.45
2023-02-23T08:09:47.916Z,1007.49
2023-02-23T08:10:49.880Z,1007.48
2023-02-23T08:11:48.229Z,1007.49
2023-02-23T08:12:48.629Z,1007.58
2023-02-23T08:13:48.533Z,1007.50
2023-02-23T08:14:48.669Z,1007.56
2023-02-23T08:15:48.809Z,1007.53
2023-02-23T08:16:51.203Z,1007.59
2023-02-23T08:17:49.085Z,1007.56
2023-02-23T08:18:49.249Z,1007.57
2023-02-23T08:19:49.411Z,1007.59
2023-02-23T08:20:49.576Z,1007.57
2023-02-23T08:21:49.737Z,1007.65
2023-02-23T08:22:50.182Z,1007.64
2023-02-23T08:23:50.063Z,1007.67
2023-02-23T08:24:50.212Z,1007.63
2023-02-23T08:25:50.367Z,1007.71
2023-02-23T08:26:50.535Z,1007.73
2023-02-23T08:27:50.654Z,1007.68
2023-02-23T08:28:50.820Z,1007.74
2023-02-23T08:29:50.953Z,1007.70
2023-02-23T08:30:51.186Z,1007.72
2023-02-23T08:31:51.375Z,1007.79
2023-02-23T08:32:51.354Z,1007.77
2023-02-23T08:33:51.561Z,1007.79
2023-02-23T08:34:51.695Z,1007.78
2023-02-23T08:35:51.815Z,1007.76
2023-02-23T08:36:51.932Z,1007.75
2023-02-23T08:37:52.077Z,1007.78
2023-02-23T08:38:52.239Z,1007.78
2023-02-23T08:39:52.395Z,1007.78
2023-02-23T08:40:52.561Z,1007.80
2023-02-23T08:41:52.693Z,1007.84
2023-02-23T08:42:52.844Z,1007.83
2023-02-23T08:43:53.091Z,1007.76
2023-02-23T08:44:53.185Z,1007.84
2023-02-23T08:45:53.399Z,1007.87
2023-02-23T08:46:53.471Z,1007.88
2023-02-23T08:47:53.622Z,1007.83
2023-02-23T08:48:53.791Z,1007.90
2023-02-23T08:49:54.023Z,1007.84
2023-02-23T08:50:54.070Z,1007.85
2023-02-23T08:51:55.045Z,1007.86
2023-02-23T08:52:54.426Z,1007.90
2023-02-23T08:53:54.527Z,1007.86
2023-02-23T08:54:54.709Z,1007.88
2023-02-23T08:55:54.810Z,1007.88
2023-02-23T08:56:54.948Z,1007.90
2023-02-23T08:57:55.108Z,1007.87
2023-02-23T08:58:55.280Z,1007.85
2023-02-23T08:59:55.508Z,1007.89
2023-02-23T09:00:55.608Z,1007.84
2023-02-23T09:01:55.786Z,1007.90
2023-02-23T09:02:55.905Z,1007.94
2023-02-23T09:03:56.009Z,1007.89
2023-02-23T09:04:56.107Z,1007.85
2023-02-23T09:05:56.268Z,1007.86
2023-02-23T09:06:56.447Z,1007.87
2023-02-23T09:07:56.547Z,1007.85
2023-02-23T09:08:56.719Z,1007.94
2023-02-23T09:09:56.857Z,1007.91
2023-02-23T09:10:56.976Z,1007.91
2023-02-23T09:11:59.016Z,1007.92
2023-02-23T09:12:57.265Z,1007.96
2023-02-23T09:13:57.425Z,1007.93
2023-02-23T09:14:57.581Z,1007.90
2023-02-23T09:15:57.778Z,1007.90
2023-02-23T09:16:57.918Z,1007.92
2023-02-23T09:17:58.077Z,1007.94
2023-02-23T09:18:58.233Z,1007.94
2023-02-23T09:19:58.387Z,1007.93
2023-02-23T09:20:58.534Z,1007.90
2023-02-23T09:21:58.677Z,1007.89
2023-02-23T09:22:58.775Z,1007.90
2023-02-23T09:23:58.916Z,1007.94
2023-02-23T09:24:59.058Z,1007.93
2023-02-23T09:25:59.195Z,1008.01
2023-02-23T09:26:59.280Z,1007.97
2023-02-23T09:27:59.451Z,1008.02
2023-02-23T09:28:59.609Z,1007.99
2023-02-23T09:29:59.774Z,1008.04
2023-02-23T09:31:00.022Z,1008.03
2023-02-23T09:32:00.313Z,1008.03
2023-02-23T09:33:00.278Z,1008.03
2023-02-23T09:34:00.414Z,1008.04
2023-02-23T09:35:00.557Z,1008.01
2023-02-23T09:36:00.708Z,1008.02
2023-02-23T09:37:00.855Z,1007.99
2023-02-23T09:38:01.005Z,1008.06
2023-02-23T09:39:01.141Z,1008.10
2023-02-23T09:40:01.291Z,1008.07
2023-02-23T09:41:01.476Z,1008.15
2023-02-23T09:42:01.636Z,1008.13
2023-02-23T09:43:01.911Z,1008.13
2023-02-23T09:44:01.893Z,1008.10
2023-02-23T09:45:02.023Z,1008.17
2023-02-23T09:46:02.149Z,1008.19
2023-02-23T09:47:02.276Z,1008.23
2023-02-23T09:48:02.458Z,1008.16
2023-02-23T09:49:02.605Z,1008.14
2023-02-23T09:50:02.714Z,1008.17
2023-02-23T09:51:02.828Z,1008.14
2023-02-23T09:52:02.927Z,1008.16
2023-02-23T09:53:03.918Z,1008.16
2023-02-23T09:54:03.186Z,1008.22
2023-02-23T09:55:03.332Z,1008.19
2023-02-23T09:56:03.427Z,1008.16
2023-02-23T09:57:03.564Z,1008.17
2023-02-23T09:58:03.734Z,1008.23
2023-02-23T09:59:03.890Z,1008.25
2023-02-23T10:00:04.174Z,1008.23
2023-02-23T10:01:04.146Z,1008.29
2023-02-23T10:02:04.283Z,1008.30
2023-02-23T10:03:04.454Z,1008.31
2023-02-23T10:04:04.595Z,1008.30
2023-02-23T10:05:04.836Z,1008.29
2023-02-23T10:06:04.905Z,1008.31
2023-02-23T10:07:05.061Z,1008.32
2023-02-23T10:08:05.175Z,1008.33
2023-02-23T10:09:05.329Z,1008.29
2023-02-23T10:10:05.440Z,1008.31
2023-02-23T10:11:05.614Z,1008.31
2023-02-23T10:12:05.773Z,1008.35
2023-02-23T10:13:05.900Z,1008.29
2023-02-23T10:14:06.048Z,1008.36
2023-02-23T10:15:06.266Z,1008.33
2023-02-23T10:16:06.494Z,1008.31
2023-02-23T10:17:06.487Z,1008.37
2023-02-23T10:18:06.625Z,1008.31
2023-02-23T10:19:08.217Z,1008.30
2023-02-23T10:20:06.954Z,1008.37
2023-02-23T10:21:07.117Z,1008.37
2023-02-23T10:22:07.261Z,1008.37
2023-02-23T10:23:07.424Z,1008.37
2023-02-23T10:24:07.560Z,1008.41
2023-02-23T10:25:07.694Z,1008.41
2023-02-23T10:26:07.860Z,1008.42
2023-02-23T10:27:07.961Z,1008.45
2023-02-23T10:28:08.123Z,1008.42
2023-02-23T10:29:08.311Z,1008.44
2023-02-23T10:30:08.400Z,1008.42
2023-02-23T10:31:08.731Z,1008.44
2023-02-23T10:32:08.925Z,1008.45
2023-02-23T10:33:08.847Z,1008.45
2023-02-23T10:34:08.985Z,1008.47
2023-02-23T10:35:09.145Z,1008.51
2023-02-23T10:36:13.510Z,1008.49
2023-02-23T10:37:09.413Z,1008.51
2023-02-23T10:38:09.566Z,1008.55
2023-02-23T10:39:09.718Z,1008.50
2023-02-23T10:40:09.804Z,1008.50
2023-02-23T10:41:09.972Z,1008.49
2023-02-23T10:42:10.150Z,1008.48
2023-02-23T10:43:10.220Z,1008.53
2023-02-23T10:44:16.728Z,1008.43
2023-02-23T10:45:11.513Z,1008.47
2023-02-23T10:46:10.701Z,1008.51
2023-02-23T10:47:10.806Z,1008.48
2023-02-23T10:48:10.959Z,1008.51
2023-02-23T10:49:11.138Z,1008.51
2023-02-23T10:50:11.316Z,1008.53
2023-02-23T10:51:11.382Z,1008.52
2023-02-23T10:52:11.542Z,1008.49
2023-02-23T10:53:11.687Z,1008.55
2023-02-23T10:54:11.866Z,1008.50
2023-02-23T10:55:11.933Z,1008.51
2023-02-23T10:56:12.077Z,1008.45
2023-02-23T10:57:12.243Z,1008.48
2023-02-23T10:58:12.421Z,1008.52
2023-02-23T10:59:12.585Z,1008.48
2023-02-23T11:00:12.691Z,1008.49
2023-02-23T11:01:12.972Z,1008.48
2023-02-23T11:02:13.072Z,1008.49
2023-02-23T11:03:13.102Z,1008.48
2023-02-23T11:04:13.278Z,1008.51
2023-02-23T11:05:13.418Z,1008.43
2023-02-23T11:06:14.110Z,1008.49
2023-02-23T11:07:14.095Z,1008.47
2023-02-23T11:08:14.080Z,1008.47
2023-02-23T11:09:13.852Z,1008.48
2023-02-23T11:10:14.688Z,1008.46
2023-02-23T11:11:14.652Z,1008.47
2023-02-23T11:12:14.309Z,1008.55
2023-02-23T11:13:14.416Z,1008.53
2023-02-23T11:14:14.589Z,1008.55
2023-02-23T11:15:14.729Z,1008.56
2023-02-23T11:16:14.919Z,1008.56
2023-02-23T11:17:14.956Z,1008.57
2023-02-23T11:18:15.117Z,1008.60
2023-02-23T11:19:15.269Z,1008.55
2023-02-23T11:20:15.444Z,1008.65
2023-02-23T11:21:15.608Z,1008.62
2023-02-23T11:22:15.766Z,1008.61
2023-02-23T11:23:15.934Z,1008.58
2023-02-23T11:24:16.079Z,1008.60
2023-02-23T11:25:16.191Z,1008.57
2023-02-23T11:26:16.318Z,1008.58
2023-02-23T11:27:16.395Z,1008.55
2023-02-23T11:28:16.568Z,1008.54
2023-02-23T11:29:16.642Z,1008.57
2023-02-23T11:30:16.789Z,1008.58
2023-02-23T11:31:17.178Z,1008.52
2023-02-23T11:32:17.271Z,1008.55
2023-02-23T11:33:17.255Z,1008.57
2023-02-23T11:34:17.424Z,1008.57
2023-02-23T11:35:17.571Z,1008.52
2023-02-23T11:36:17.764Z,1008.47
2023-02-23T11:37:17.916Z,1008.49
2023-02-23T11:38:18.026Z,1008.45
2023-02-23T11:39:18.175Z,1008.52
2023-02-23T11:40:18.367Z,1008.48
2023-02-23T11:41:18.787Z,1008.52
2023-02-23T11:42:18.632Z,1008.52
2023-02-23T11:43:18.887Z,1008.48
2023-02-23T11:44:18.867Z,1008.47
2023-02-23T11:45:18.966Z,1008.40
2023-02-23T11:46:19.484Z,1008.50
2023-02-23T11:47:19.259Z,1008.48
2023-02-23T11:48:19.394Z,1008.42
2023-02-23T11:49:19.503Z,1008.42
2023-02-23T11:50:19.663Z,1008.47
2023-02-23T11:51:19.795Z,1008.34
2023-02-23T11:52:19.930Z,1008.41
2023-02-23T11:53:20.093Z,1008.40
2023-02-23T11:54:20.252Z,1008.35
2023-02-23T11:55:20.567Z,1008.37
2023-02-23T11:56:21.042Z,1008.39
2023-02-23T11:57:20.735Z,1008.35
2023-02-23T11:58:20.938Z,1008.29
2023-02-23T11:59:21.074Z,1008.30
2023-02-23T12:00:21.187Z,1008.28
2023-02-23T12:01:22.762Z,1008.27
2023-02-23T12:02:21.552Z,1008.22
2023-02-23T12:03:21.711Z,1008.27
2023-02-23T12:04:21.778Z,1008.27
2023-02-23T12:05:21.898Z,1008.25
2023-02-23T12:06:22.366Z,1008.25
2023-02-23T12:07:22.169Z,1008.25